createdAt,value
2023-04-01T00:04:48.020Z,14.08
2023-04-01T00:11:49.730Z,13.96
2023-04-01T00:18:51.569Z,13.97
2023-04-01T00:25:53.297Z,13.96
2023-04-01T00:32:54.910Z,13.96
2023-04-01T00:39:56.579Z,14.08
2023-04-01T00:46:58.355Z,13.93
2023-04-01T00:54:00.225Z,13.99
2023-04-01T01:01:01.891Z,14.05
2023-04-01T01:08:18.648Z,14.02
2023-04-01T01:15:28.117Z,14.03
2023-04-01T01:22:44.847Z,13.99
2023-04-01T01:30:08.734Z,14.02
2023-04-01T01:37:13.053Z,13.99
2023-04-01T01:44:14.758Z,14.01
2023-04-01T01:51:16.498Z,14.06
2023-04-01T01:58:25.580Z,14.05
2023-04-01T02:05:28.019Z,14.08
2023-04-01T02:12:35.892Z,14.18
2023-04-01T02:19:40.067Z,14.03
2023-04-01T02:26:41.944Z,14.04
2023-04-01T02:33:43.530Z,14.00
2023-04-01T02:40:50.538Z,14.00
2023-04-01T02:47:52.123Z,13.99
2023-04-01T02:54:54.124Z,13.94
2023-04-01T03:01:56.062Z,13.84
2023-04-01T03:08:57.772Z,13.93
2023-04-01T03:15:59.726Z,13.97
2023-04-01T03:23:01.391Z,13.94
2023-04-01T03:30:07.270Z,13.89
2023-04-01T03:37:15.534Z,13.92
2023-04-01T03:44:17.122Z,13.93
2023-04-01T03:51:21.478Z,14.00
2023-04-01T03:58:23.203Z,13.98
2023-04-01T04:05:26.001Z,13.98
2023-04-01T04:12:27.704Z,13.95
2023-04-01T04:19:34.760Z,13.95
2023-04-01T04:26:37.070Z,14.01
2023-04-01T04:33:38.745Z,13.96
2023-04-01T04:40:41.125Z,14.05
2023-04-01T04:47:42.873Z,13.99
2023-04-01T04:54:45.090Z,13.98
2023-04-01T05:01:47.051Z,13.97
2023-04-01T05:08:49.172Z,14.01
2023-04-01T05:15:50.933Z,14.04
2023-04-01T05:22:57.101Z,14.02
2023-04-01T05:29:58.968Z,14.07
2023-04-01T05:37:39.079Z,14.13
2023-04-01T05:44:40.801Z,14.10
2023-04-01T05:51:42.338Z,14.02
2023-04-01T05:58:44.557Z,14.10
2023-04-01T06:05:46.315Z,14.12
2023-04-01T06:12:58.415Z,14.14
2023-04-01T06:20:26.734Z,14.19
2023-04-01T06:27:47.308Z,14.23
2023-04-01T06:35:02.068Z,14.19
2023-04-01T06:42:15.630Z,14.43
2023-04-01T06:49:51.542Z,14.31
2023-04-01T06:57:31.190Z,14.21
2023-04-01T07:04:35.717Z,14.27
2023-04-01T07:11:38.520Z,14.40
2023-04-01T07:19:17.520Z,14.40
2023-04-01T07:26:36.412Z,14.43
2023-04-01T07:33:59.048Z,14.44
2023-04-01T07:41:13.625Z,14.46
2023-04-01T07:48:32.679Z,14.53
2023-04-01T07:55:46.686Z,14.41
2023-04-01T08:02:52.860Z,14.57
2023-04-01T08:10:33.684Z,14.54
2023-04-01T08:18:15.433Z,14.15
2023-04-01T08:25:27.943Z,13.98
2023-04-01T08:32:35.405Z,14.06
2023-04-01T08:39:39.446Z,13.78
2023-04-01T08:46:59.850Z,13.55
2023-04-01T08:54:18.300Z,13.75
2023-04-01T09:01:47.720Z,13.35
2023-04-01T09:09:39.830Z,13.46
2023-04-01T09:17:08.939Z,13.50
2023-04-01T09:24:24.582Z,13.41
2023-04-01T09:31:53.883Z,13.59
2023-04-01T09:39:38.350Z,13.24
2023-04-01T09:47:07.311Z,13.02
2023-04-01T09:54:36.086Z,12.70
2023-04-01T10:01:53.656Z,13.18
2023-04-01T10:09:21.868Z,13.08
2023-04-01T10:16:41.507Z,12.56
2023-04-01T10:24:07.530Z,12.85
2023-04-01T10:31:21.935Z,12.77
2023-04-01T10:38:51.273Z,13.17
2023-04-01T10:46:36.482Z,13.19
2023-04-01T10:53:47.061Z,13.08
2023-04-01T11:01:17.414Z,12.98
2023-04-01T11:09:10.323Z,13.23
2023-04-01T11:16:31.128Z,12.59
2023-04-01T11:24:11.762Z,13.14
2023-04-01T11:32:01.924Z,12.62
2023-04-01T11:39:11.375Z,13.32
2023-04-01T11:46:59.667Z,13.28
2023-04-01T11:54:36.352Z,12.73
2023-04-01T12:01:44.054Z,12.47
2023-04-01T12:08:57.785Z,12.60
2023-04-01T12:16:35.132Z,12.52
2023-04-01T12:24:13.363Z,12.37
2023-04-01T12:31:29.696Z,12.26
2023-04-01T12:39:21.240Z,12.42
2023-04-01T12:46:43.796Z,12.33
2023-04-01T12:54:27.099Z,12.62
2023-04-01T13:02:14.901Z,12.73
2023-04-01T13:09:25.909Z,12.37
2023-04-01T13:16:32.210Z,12.71
2023-04-01T13:24:01.676Z,12.47
2023-04-01T13:31:06.830Z,12.68
2023-04-01T13:38:40.626Z,13.02
2023-04-01T13:45:55.344Z,11.70
2023-04-01T13:53:18.703Z,11.75
2023-04-01T14:00:45.404Z,11.64
2023-04-01T14:08:17.241Z,11.45
2023-04-01T14:15:48.814Z,11.39
2023-04-01T14:23:05.774Z,11.76
2023-04-01T14:30:31.819Z,11.76
2023-04-01T14:37:56.859Z,12.18
2023-04-01T14:45:36.489Z,11.71
2023-04-01T14:52:40.455Z,11.71
2023-04-01T15:00:03.447Z,11.65
2023-04-01T15:07:12.241Z,11.66
2023-04-01T15:14:19.298Z,11.62
2023-04-01T15:21:26.475Z,11.00
2023-04-01T15:28:34.424Z,11.21
2023-04-01T15:35:47.849Z,11.06
2023-04-01T15:43:00.623Z,11.34
2023-04-01T15:50:11.441Z,11.06
2023-04-01T15:57:15.921Z,11.06
2023-04-01T16:05:07.298Z,11.28
2023-04-01T16:12:27.130Z,11.06
2023-04-01T16:20:08.817Z,10.81
2023-04-01T16:27:14.860Z,10.78
2023-04-01T16:34:23.323Z,10.56
2023-04-01T16:41:42.400Z,10.50
2023-04-01T16:49:04.073Z,10.42
2023-04-01T16:56:11.797Z,10.08
2023-04-01T17:03:24.746Z,10.04
2023-04-01T17:10:44.425Z,10.27
2023-04-01T17:18:10.336Z,10.26
2023-04-01T17:25:21.749Z,9.89
2023-04-01T17:32:42.715Z,9.75
2023-04-01T17:40:16.651Z,9.98
2023-04-01T17:47:38.923Z,9.71
2023-04-01T17:54:58.940Z,10.06
2023-04-01T18:02:18.856Z,10.04
2023-04-01T18:09:38.332Z,10.13
2023-04-01T18:16:39.792Z,9.49
2023-04-01T18:24:02.246Z,9.39
2023-04-01T18:31:04.255Z,9.13
2023-04-01T18:38:21.104Z,9.66
2023-04-01T18:45:32.789Z,8.64
2023-04-01T18:52:38.754Z,9.37
2023-04-01T18:59:45.388Z,9.66
2023-04-01T19:06:55.576Z,9.43
2023-04-01T19:14:24.786Z,9.60
2023-04-01T19:21:39.946Z,9.15
2023-04-01T19:29:19.375Z,8.90
2023-04-01T19:36:41.161Z,8.90
2023-04-01T19:44:05.322Z,8.85
2023-04-01T19:51:26.553Z,8.76
2023-04-01T19:58:49.307Z,8.81
2023-04-01T20:06:17.721Z,8.58
2023-04-01T20:13:38.035Z,8.99
2023-04-01T20:20:39.577Z,8.74
2023-04-01T20:27:45.216Z,8.69
2023-04-01T20:35:08.634Z,8.24
2023-04-01T20:42:23.412Z,8.04
2023-04-01T20:50:01.414Z,8.98
2023-04-01T20:57:15.037Z,8.31
2023-04-01T21:04:37.594Z,7.78
2023-04-01T21:11:47.119Z,8.17
2023-04-01T21:19:09.521Z,8.21
2023-04-01T21:26:23.207Z,8.27
2023-04-01T21:33:30.828Z,8.14
2023-04-01T21:40:54.378Z,8.10
2023-04-01T21:48:33.425Z,7.81
2023-04-01T21:56:08.773Z,7.99
2023-04-01T22:03:39.828Z,7.69
2023-04-01T22:11:10.428Z,7.64
2023-04-01T22:18:23.713Z,8.18
2023-04-01T22:25:40.823Z,7.60
2023-04-01T22:32:47.921Z,7.48
2023-04-01T22:40:12.387Z,7.52
2023-04-01T22:47:37.740Z,7.65
2023-04-01T22:54:51.934Z,7.34
2023-04-01T23:01:59.760Z,7.62
2023-04-01T23:09:29.438Z,7.76
2023-04-01T23:16:38.091Z,7.62
2023-04-01T23:23:54.110Z,7.54
2023-04-01T23:30:55.748Z,7.36
2023-04-01T23:37:57.396Z,7.22
2023-04-01T23:45:00.426Z,7.29
2023-04-01T23:52:14.509Z,7.61
2023-04-01T23:59:23.359Z,7.59
